Go Pro

Woodward (WWD) Institutional Ownership

Woodward logo
$342.56 +7.04 (+2.10%)
As of 09/3/2026 04:00 PM Eastern

Institutional Ownership Changes (13F Filings) for Woodward (NASDAQ:WWD)

Current
Institutional Ownership
Percentage
81.18%
Number of
Institutional Buyers
(last 12 months)
406
Total
Institutional Inflows
(last 12 months)
$19.48B
Number of
Institutional Sellers
(last 12 months)
239
Total
Institutional Outflows
(last 12 months)
$2.08B
Get WWD Insider Trade Alerts

Want to know when executives and insiders are buying or selling Woodward stock? Sign up for InsiderTrades.com's daily newsletter to get the latest insider transactions delivered to your inbox daily.

SMS is currently available in Australia, Belgium, Canada, France, Germany, Ireland, Italy, New Zealand, the Netherlands, Singapore, South Africa, Spain, Switzerland, the United Kingdom, and the United States. By entering your phone number and clicking the sign-up button, you agree to receive periodic text messages from MarketBeat at the phone number you submitted, including texts that may be sent using an automatic telephone dialing system. Message and data rates may apply. Message frequency will vary. Messages will consist of stock alerts, news stories, and partner advertisements/offers. Consent is not a condition of the purchase of any goods or services. Text HELP for help/customer support. Unsubscribe at any time by replying "STOP" to any text message that you receive from MarketBeat or by visiting our mailing preferences page. Read our full terms of service and privacy policy.
Skip Chart & View Institutional Buying and Selling Data

WWD Institutional Buying and Selling by Quarter

Woodward Major Shareholders & Ownership History

Reporting DateMajor Shareholder NameShares HeldMarket Value% of PortfolioQuarterly Change in SharesOwnership in CompanyDetails
8/27/2026 Corient Private Wealth LP30,354$12.91M0.0%-19.4%0.051%
8/26/2026 Amundi12,389$5.27M0.0%-7.5%0.021%
8/26/2026 HighTower Advisors LLC7,059$3.00M0.0%-21.9%0.012%
8/25/2026 VIRGINIA RETIREMENT SYSTEMS ET Al17,473$7.43M0.0%N/A0.030%
8/24/2026 California State Teachers Retirement System29,448,531$12.53B0.0%+42,244.0%49.871%
8/23/2026 Washington Trust Advisors Inc.77$33K0.0%N/A0.000%
8/23/2026 Varenne Capital Partners86,629$36.83M6.1%N/A0.147%
8/23/2026 HB Wealth Management LLC1,845$785K0.0%-12.4%0.003%
8/22/2026 AlphaGrep UK Ltd1,492$635K0.2%N/A0.003%
8/22/2026 Syon Capital LLC617$262K0.0%N/A0.001%
8/22/2026 Concurrent Investment Advisors LLC1,378$586K0.0%-2.3%0.002%
8/21/2026 Greenspring Advisors LLC1,990$847K0.0%-7.7%0.003%
8/21/2026 Nykredit A S1,748$744K0.0%N/A0.003%
8/21/2026 Keeler Thomas Management LLC3,440$1.46M0.5%+6.7%0.006%
8/21/2026 Aubrey Capital Management Ltd8,100$3.45M2.1%-12.9%0.014%
8/21/2026 Legacy Financial Advisors Inc.496$211K0.0%N/A0.001%
8/20/2026 Proficio Capital Partners LLC618$263K0.0%N/A0.001%
8/20/2026 Rehmann Capital Advisory Group2,237$952K0.0%+16.1%0.004%
8/20/2026 Headlands Technologies LLC4,496$1.91M0.2%+381.9%0.008%
8/20/2026 Senator Investment Group LP223,591$95.13M3.5%-1.3%0.379%
8/20/2026 Quantitative Investment Management LLC3,952$1.68M0.2%-15.9%0.007%
8/20/2026 Susquehanna Fundamental Investments LLC4,132$1.76M0.0%-2.5%0.007%
8/20/2026 Moore Capital Management LP65,438$27.84M0.4%+596.5%0.111%
8/20/2026 Two Sigma Securities LLC3,271$1.39M0.1%+139.8%0.006%
8/20/2026 Alyeska Investment Group L.P.117,958$50.18M0.1%+24.7%0.200%
8/20/2026 Cookson Peirce & Co. Inc.92,751$39.46M1.3%+17.9%0.157%
8/19/2026 UBS AM a distinct business unit of UBS ASSET MANAGEMENT AMERICAS LLC329,383$140.13M0.0%+0.6%0.558%
8/19/2026 Van ECK Associates Corp52,102$22.17M0.0%+9.6%0.088%
8/19/2026 Navellier & Associates Inc.9,726$4.14M0.3%+6.2%0.016%
8/19/2026 Hsbc Holdings PLC2,095$890K0.0%-58.5%0.004%
8/19/2026 Archer Investment Corp579$246K0.0%N/A0.001%
8/19/2026 Kingsview Wealth Management LLC1,190$506K0.0%N/A0.002%
8/18/2026 Empowered Funds LLC7,563$3.22M0.0%N/A0.013%
8/18/2026 United Capital Financial Advisors LLC697$297K0.0%N/A0.001%
8/18/2026 Caitlin John LLC1,353$576K0.3%N/A0.002%
8/18/2026 Equitable Holdings Inc.2,281$970K0.0%N/A0.004%
8/18/2026 Coastal Bridge Advisors LLC962$409K0.0%N/A0.002%
8/18/2026 Public Employees Retirement System of Ohio33,315$14.17M0.0%N/A0.056%
8/17/2026 Capstone Investment Advisors LLC2,607$1.11M0.0%N/A0.004%
8/17/2026 Proficio Capital Partners LLC618$263K0.0%N/A0.001%
A Simple Guide to Options Trading While It's Still Free (Ad)

A free copy of Options Trading Made Simple is available now but wont stay that way for long. Chris Rowe calls it The 10-Minute Guide to Start Trading Options Today, built to help you open your first options trade with less capital than buying shares outright.tc pixel

Download your free copy of Options Trading Made Simple before it's gone
8/17/2026 Corient Private Wealth LP29,275$12.46M0.0%N/A0.050%
8/17/2026 Bank of America Corp DE713,844$303.70M0.0%N/A1.209%
8/15/2026 Caisse de depot et placement du Quebec107,100$45.57M0.1%N/A0.181%
8/15/2026 Man Group plc229,729$97.74M0.2%N/A0.389%
8/15/2026 Jupiter Topco LLC26,849$11.43M0.0%N/A0.045%
8/15/2026 Kinetic Partners Management LP299,398$127.38M3.0%N/A0.507%
8/14/2026 Hsbc Holdings PLC2,095$890K0.0%N/A0.004%
8/14/2026 PDT Partners LLC5,838$2.48M0.1%N/A0.010%
8/14/2026 Palisade Capital Management LP26,957$11.47M0.5%N/A0.046%
8/14/2026 Cooper Haims Advisors LLC600$255K0.1%N/A0.001%
8/14/2026 Canada Pension Plan Investment Board55,360$23.55M0.0%N/A0.094%
8/14/2026 Castleark Management LLC2,720$1.16M0.0%N/A0.005%
8/14/2026 Legal & General Group Plc87,147$37.08M0.0%N/A0.148%
8/14/2026 The Manufacturers Life Insurance Company27,566$11.73M0.0%N/A0.047%
8/14/2026 Kelly Lawrence W & Associates Inc. CA15,239$6.48M1.4%N/A0.026%
8/14/2026 Stockbridge Partners LLC270,673$115.16M2.4%N/A0.458%
8/14/2026 Algert Global LLC110,116$46.85M0.6%+11.7%0.186%
8/13/2026 Tribune Investment Group LP13,520$5.75M2.3%N/A0.023%
8/13/2026 Sanctuary Advisors LLC8,528$3.63M0.0%N/A0.014%
8/13/2026 PEAK6 LLC1,246$530K0.0%N/A0.002%
8/13/2026 Meiji Yasuda Asset Management Co Ltd.1,373$584K0.0%N/A0.002%
8/13/2026 Mission Financial Group LLC742$316K0.3%N/A0.001%
8/13/2026 Twin Tree Management LP689$293K0.0%N/A0.001%
8/13/2026 Bank of Nova Scotia86,729$36.90M0.1%N/A0.147%
8/12/2026 Elevation Point Wealth Partners LLC1,187$505K0.0%N/A0.002%
8/12/2026 Commerce Bank5,126$2.18M0.0%N/A0.009%
8/12/2026 Northwestern Mutual Wealth Management Co.490$208K0.0%N/A0.001%
8/12/2026 Quantbot Technologies LP22,848$9.72M0.4%N/A0.039%
8/12/2026 Evolve Private Wealth LLC1,238$527K0.0%N/A0.002%
8/12/2026 Findlay Park Partners LLP545,220$231.96M3.1%N/A0.923%
8/12/2026 Farringdon Capital Ltd.750$319K0.2%N/A0.001%
8/12/2026 EP Wealth Advisors LLC5,075$2.16M0.0%N/A0.009%
8/12/2026 Bard Associates Inc.65$28K0.0%N/A0.000%
8/12/2026 Ieq Capital LLC22,150$9.42M0.0%N/A0.038%
8/12/2026 Callan Family Office LLC1,154$491K0.0%N/A0.002%
8/11/2026 Keating Financial Advisory Services Inc.1,744$742K0.1%N/A0.003%
8/11/2026 Allworth Financial LP763$325K0.0%N/A0.001%
8/11/2026 Greenspring Advisors LLC1,990$847K0.0%N/A0.003%
8/11/2026 Virtus Advisers LLC2,167$922K0.4%N/A0.004%
8/11/2026 Ceredex Value Advisors LLC56,650$24.10M0.7%N/A0.096%
8/11/2026 Kilter Group LLC160$68K0.0%N/A0.000%
8/11/2026 Vise Technologies Inc.1,648$701K0.0%N/A0.003%
8/11/2026 Northcape Wealth Management LLC7,134$3.04M0.8%N/A0.012%
8/10/2026 AssuredPartners Investment Advisors LLC486$207K0.0%N/A0.001%
8/10/2026 NewEdge Wealth LLC1,189$506K0.0%N/A0.002%
8/10/2026 Dala Group LLC885$377K0.3%N/A0.001%
8/10/2026 Danske Bank A S982$418K0.0%N/A0.002%
8/10/2026 Diversify Advisory Services LLC1,908$801K0.0%N/A0.003%
8/8/2026 Wealthfront Advisers LLC515$219K0.0%N/A0.001%
8/8/2026 Meeder Advisory Services Inc.747$318K0.0%N/A0.001%
The cat is out the bag (Ad)

Almost 80,000 tech jobs vanished in the first three months of 2026. Meta cut 14,000 roles, Microsoft offered separation packages to 8,500 workers, and Oracle is reportedly eliminating up to 30,000 positions. Goldman Sachs estimates 12,400 Americans are being financially displaced every single day. Analyst Porter Stansberry says the real driver runs deeper than AI - and two Nobel Prize winners have issued the same warning. He calls it the Final Displacement, and he's releasing a full investigation with specific companies to buy and sell before the next wave hits.tc pixel

Watch Porter Stansberry's full investigation into the Final Displacement now
8/7/2026 Citizens Financial Group Inc. RI1,074$457K0.0%N/A0.002%
8/7/2026 BlackRock Inc.7,015,523$2.98B0.0%N/A11.881%
8/7/2026 Pallas Capital Advisors LLC2,319$987K0.0%N/A0.004%
8/7/2026 Deutsche Bank AG93,455$39.76M0.0%N/A0.158%
8/7/2026 Perigon Wealth Management LLC1,286$547K0.0%N/A0.002%
8/7/2026 Mitsubishi UFJ Asset Management Co. Ltd.171$73K0.0%N/A0.000%
8/7/2026 Persistent Asset Partners Ltd153$65K0.0%N/A0.000%
8/7/2026 Beverly Hills Private Wealth LLC1,019$434K0.1%N/A0.002%
8/7/2026 OneDigital Investment Advisors LLC1,347$573K0.0%N/A0.002%
8/6/2026 Global Retirement Partners LLC563$239K0.0%N/A0.001%


WWD Institutional Ownership - Frequently Asked Questions

During the previous two years, 648 institutional investors and hedge funds held shares of Woodward. The most heavily invested institutionals were California State Teachers Retirement System ($12.53B), BlackRock Inc. ($2.98B), Vanguard Group Inc. ($1.68B), State Street Corp ($708.93M), Newport Trust Company LLC ($605.30M), Geode Capital Management LLC ($451.09M), and Earnest Partners LLC ($407.00M).Learn more on Woodward's institutional investors.

81.18% of Woodward's stock is owned by institutional investors. Learn more on WWD's institutional investor holdings.

Of the 571 institutional investors that purchased Woodward's stock in the last 24 months, the following investors and hedge funds have bought the highest volume of shares: California State Teachers Retirement System ($29.39M), BlackRock Inc. ($7.02M), Norges Bank ($2.38M), Naya Capital Management UK Ltd. ($1.33M), Findlay Park Partners LLP ($1.23M), Artisan Partners Limited Partnership ($1.07M), and Bank of America Corp DE ($748.24K).

Institutional investors have bought a total of 48,677,763 shares in the last 24 months. This purchase volume represents approximately $19.48B in transactions.

Of the 239 institutional investors that sold Woodward's stock in the last 24 months, the following investors and hedge funds have sold the highest volume of shares: Capital Research Global Investors ($1.74M), Cooke & Bieler LP ($558.83K), JPMorgan Chase & Co. ($484.23K), Naya Capital Management UK Ltd. ($392.52K), Farallon Capital Management LLC ($292.70K), Royal Bank of Canada ($247.82K), and Freestone Grove Partners LP ($219.04K).

Institutional investors have sold a total of 7,193,819 shares in the last 24 months. This volume of shares sold represents approximately $2.08B in transactions.



Institutional ownership data for NASDAQ:WWD is compiled from quarterly 13F filings submitted to the U.S. Securities and Exchange Commission (SEC), with the most recent received on 8/27/2026. New 13F filings are added each quarter as they're published.
From Our Partners